sensor_id;sensor_type;location;lat;lon;timestamp;P1;durP1;ratioP1;P2;durP2;ratioP2
53411;SDS011;39307;52.870;13.660;2023-07-02T00:00:04;2.40;;;1.48;;
53411;SDS011;39307;52.870;13.660;2023-07-02T00:02:32;2.38;;;1.50;;
53411;SDS011;39307;52.870;13.660;2023-07-02T00:04:58;2.58;;;1.55;;
53411;SDS011;39307;52.870;13.660;2023-07-02T00:07:24;3.85;;;1.50;;
53411;SDS011;39307;52.870;13.660;2023-07-02T00:09:50;3.85;;;1.45;;
53411;SDS011;39307;52.870;13.660;2023-07-02T00:12:17;2.00;;;1.30;;
53411;SDS011;39307;52.870;13.660;2023-07-02T00:14:43;2.28;;;1.25;;
53411;SDS011;39307;52.870;13.660;2023-07-02T00:17:09;2.65;;;1.35;;
53411;SDS011;39307;52.870;13.660;2023-07-02T00:19:36;2.03;;;1.20;;
53411;SDS011;39307;52.870;13.660;2023-07-02T00:22:02;2.95;;;1.25;;
53411;SDS011;39307;52.870;13.660;2023-07-02T00:24:28;1.93;;;1.30;;
53411;SDS011;39307;52.870;13.660;2023-07-02T00:26:54;3.30;;;1.30;;
53411;SDS011;39307;52.870;13.660;2023-07-02T00:29:21;2.03;;;1.20;;
53411;SDS011;39307;52.870;13.660;2023-07-02T00:31:47;3.63;;;1.40;;
53411;SDS011;39307;52.870;13.660;2023-07-02T00:34:13;2.30;;;1.30;;
53411;SDS011;39307;52.870;13.660;2023-07-02T00:36:39;2.43;;;1.43;;
53411;SDS011;39307;52.870;13.660;2023-07-02T00:39:05;3.30;;;1.40;;
53411;SDS011;39307;52.870;13.660;2023-07-02T00:41:31;2.03;;;1.23;;
53411;SDS011;39307;52.870;13.660;2023-07-02T00:43:57;2.78;;;1.40;;
53411;SDS011;39307;52.870;13.660;2023-07-02T00:46:23;3.60;;;1.70;;
53411;SDS011;39307;52.870;13.660;2023-07-02T00:48:51;2.35;;;1.45;;
53411;SDS011;39307;52.870;13.660;2023-07-02T00:51:19;3.35;;;1.70;;
53411;SDS011;39307;52.870;13.660;2023-07-02T00:53:47;2.60;;;1.50;;
53411;SDS011;39307;52.870;13.660;2023-07-02T00:56:15;2.43;;;1.40;;
53411;SDS011;39307;52.870;13.660;2023-07-02T00:58:45;4.07;;;1.77;;
53411;SDS011;39307;52.870;13.660;2023-07-02T01:01:20;2.85;;;1.52;;
53411;SDS011;39307;52.870;13.660;2023-07-02T01:03:55;2.78;;;1.50;;
53411;SDS011;39307;52.870;13.660;2023-07-02T01:06:23;3.42;;;1.55;;
53411;SDS011;39307;52.870;13.660;2023-07-02T01:09:03;3.08;;;1.70;;
53411;SDS011;39307;52.870;13.660;2023-07-02T01:11:34;5.10;;;2.10;;
53411;SDS011;39307;52.870;13.660;2023-07-02T01:14:05;3.83;;;1.75;;
53411;SDS011;39307;52.870;13.660;2023-07-02T01:16:34;4.57;;;1.87;;
53411;SDS011;39307;52.870;13.660;2023-07-02T01:19:02;4.38;;;2.20;;
53411;SDS011;39307;52.870;13.660;2023-07-02T01:21:36;3.60;;;1.98;;
53411;SDS011;39307;52.870;13.660;2023-07-02T01:24:03;4.20;;;2.00;;
53411;SDS011;39307;52.870;13.660;2023-07-02T01:26:31;4.32;;;2.03;;
53411;SDS011;39307;52.870;13.660;2023-07-02T01:28:57;3.63;;;2.10;;
53411;SDS011;39307;52.870;13.660;2023-07-02T01:31:23;4.55;;;2.10;;
53411;SDS011;39307;52.870;13.660;2023-07-02T01:33:50;4.45;;;2.20;;
53411;SDS011;39307;52.870;13.660;2023-07-02T01:36:17;5.20;;;2.10;;
53411;SDS011;39307;52.870;13.660;2023-07-02T01:38:43;4.87;;;2.10;;
53411;SDS011;39307;52.870;13.660;2023-07-02T01:41:09;5.20;;;2.23;;
53411;SDS011;39307;52.870;13.660;2023-07-02T01:43:35;5.80;;;2.40;;
53411;SDS011;39307;52.870;13.660;2023-07-02T01:46:04;4.50;;;2.17;;
53411;SDS011;39307;52.870;13.660;2023-07-02T01:48:31;7.57;;;2.37;;
53411;SDS011;39307;52.870;13.660;2023-07-02T01:50:57;4.20;;;2.10;;
53411;SDS011;39307;52.870;13.660;2023-07-02T01:53:23;4.75;;;2.28;;
53411;SDS011;39307;52.870;13.660;2023-07-02T01:55:49;4.55;;;2.58;;
53411;SDS011;39307;52.870;13.660;2023-07-02T01:58:15;4.70;;;2.42;;
53411;SDS011;39307;52.870;13.660;2023-07-02T02:00:41;4.63;;;2.38;;
53411;SDS011;39307;52.870;13.660;2023-07-02T02:03:07;5.03;;;2.30;;
53411;SDS011;39307;52.870;13.660;2023-07-02T02:05:34;4.63;;;2.47;;
53411;SDS011;39307;52.870;13.660;2023-07-02T02:08:00;3.47;;;2.05;;
53411;SDS011;39307;52.870;13.660;2023-07-02T02:10:26;4.22;;;2.70;;
53411;SDS011;39307;52.870;13.660;2023-07-02T02:12:52;4.72;;;2.30;;
53411;SDS011;39307;52.870;13.660;2023-07-02T02:15:18;5.82;;;3.00;;
53411;SDS011;39307;52.870;13.660;2023-07-02T02:17:44;5.70;;;2.83;;
53411;SDS011;39307;52.870;13.660;2023-07-02T02:20:11;5.28;;;3.00;;
53411;SDS011;39307;52.870;13.660;2023-07-02T02:22:38;5.72;;;3.28;;
53411;SDS011;39307;52.870;13.660;2023-07-02T02:25:04;7.90;;;3.20;;
53411;SDS011;39307;52.870;13.660;2023-07-02T02:27:30;5.07;;;3.20;;
53411;SDS011;39307;52.870;13.660;2023-07-02T02:29:56;7.25;;;3.13;;
53411;SDS011;39307;52.870;13.660;2023-07-02T02:32:22;6.50;;;3.38;;
53411;SDS011;39307;52.870;13.660;2023-07-02T02:34:49;6.13;;;3.50;;
53411;SDS011;39307;52.870;13.660;2023-07-02T02:37:15;8.77;;;3.70;;
53411;SDS011;39307;52.870;13.660;2023-07-02T02:39:41;6.90;;;3.30;;
53411;SDS011;39307;52.870;13.660;2023-07-02T02:42:07;6.83;;;3.47;;
53411;SDS011;39307;52.870;13.660;2023-07-02T02:44:33;5.50;;;3.60;;
53411;SDS011;39307;52.870;13.660;2023-07-02T02:47:00;7.10;;;3.77;;
53411;SDS011;39307;52.870;13.660;2023-07-02T02:49:26;9.32;;;4.00;;
53411;SDS011;39307;52.870;13.660;2023-07-02T02:51:52;8.55;;;3.90;;
53411;SDS011;39307;52.870;13.660;2023-07-02T02:54:18;6.85;;;3.83;;
53411;SDS011;39307;52.870;13.660;2023-07-02T02:56:44;6.53;;;3.70;;
53411;SDS011;39307;52.870;13.660;2023-07-02T02:59:11;5.87;;;3.83;;
53411;SDS011;39307;52.870;13.660;2023-07-02T03:01:37;7.20;;;3.93;;
53411;SDS011;39307;52.870;13.660;2023-07-02T03:04:03;6.63;;;3.87;;
53411;SDS011;39307;52.870;13.660;2023-07-02T03:06:29;7.67;;;4.40;;
53411;SDS011;39307;52.870;13.660;2023-07-02T03:08:55;6.70;;;4.22;;
53411;SDS011;39307;52.870;13.660;2023-07-02T03:11:22;5.65;;;4.03;;
53411;SDS011;39307;52.870;13.660;2023-07-02T03:13:49;6.67;;;4.10;;
53411;SDS011;39307;52.870;13.660;2023-07-02T03:16:15;6.70;;;4.23;;
53411;SDS011;39307;52.870;13.660;2023-07-02T03:18:41;6.50;;;4.30;;
53411;SDS011;39307;52.870;13.660;2023-07-02T03:21:07;6.00;;;4.30;;
53411;SDS011;39307;52.870;13.660;2023-07-02T03:23:34;8.82;;;4.78;;
53411;SDS011;39307;52.870;13.660;2023-07-02T03:26:00;8.60;;;4.63;;
53411;SDS011;39307;52.870;13.660;2023-07-02T03:28:26;6.80;;;4.57;;
53411;SDS011;39307;52.870;13.660;2023-07-02T03:30:53;7.13;;;4.65;;
53411;SDS011;39307;52.870;13.660;2023-07-02T03:33:19;8.57;;;4.90;;
53411;SDS011;39307;52.870;13.660;2023-07-02T03:35:45;7.05;;;4.43;;
53411;SDS011;39307;52.870;13.660;2023-07-02T03:38:11;8.80;;;4.75;;
53411;SDS011;39307;52.870;13.660;2023-07-02T03:40:37;7.75;;;4.43;;
53411;SDS011;39307;52.870;13.660;2023-07-02T03:43:03;7.85;;;4.70;;
53411;SDS011;39307;52.870;13.660;2023-07-02T03:45:30;6.67;;;4.80;;
53411;SDS011;39307;52.870;13.660;2023-07-02T03:47:56;6.60;;;4.40;;
53411;SDS011;39307;52.870;13.660;2023-07-02T03:50:22;9.63;;;5.13;;
53411;SDS011;39307;52.870;13.660;2023-07-02T03:52:48;7.57;;;4.60;;
53411;SDS011;39307;52.870;13.660;2023-07-02T03:55:14;8.50;;;5.10;;
53411;SDS011;39307;52.870;13.660;2023-07-02T03:57:41;8.63;;;5.20;;
53411;SDS011;39307;52.870;13.660;2023-07-02T04:00:07;7.37;;;4.60;;
53411;SDS011;39307;52.870;13.660;2023-07-02T04:02:33;8.30;;;4.90;;
53411;SDS011;39307;52.870;13.660;2023-07-02T04:05:00;8.35;;;5.03;;
53411;SDS011;39307;52.870;13.660;2023-07-02T04:07:26;8.77;;;5.20;;
53411;SDS011;39307;52.870;13.660;2023-07-02T04:09:52;8.63;;;5.32;;
53411;SDS011;39307;52.870;13.660;2023-07-02T04:12:18;10.52;;;5.25;;
53411;SDS011;39307;52.870;13.660;2023-07-02T04:14:44;7.45;;;4.80;;
53411;SDS011;39307;52.870;13.660;2023-07-02T04:17:10;10.35;;;5.60;;
53411;SDS011;39307;52.870;13.660;2023-07-02T04:19:36;8.33;;;5.00;;
53411;SDS011;39307;52.870;13.660;2023-07-02T04:22:03;7.87;;;4.97;;
53411;SDS011;39307;52.870;13.660;2023-07-02T04:24:29;8.73;;;5.13;;
53411;SDS011;39307;52.870;13.660;2023-07-02T04:26:55;10.40;;;5.00;;
53411;SDS011;39307;52.870;13.660;2023-07-02T04:29:21;8.93;;;5.20;;
53411;SDS011;39307;52.870;13.660;2023-07-02T04:31:47;7.60;;;5.00;;
53411;SDS011;39307;52.870;13.660;2023-07-02T04:34:13;8.13;;;4.80;;
53411;SDS011;39307;52.870;13.660;2023-07-02T04:36:40;7.03;;;4.57;;
53411;SDS011;39307;52.870;13.660;2023-07-02T04:39:06;8.30;;;5.00;;
53411;SDS011;39307;52.870;13.660;2023-07-02T04:41:34;10.27;;;4.68;;
53411;SDS011;39307;52.870;13.660;2023-07-02T04:44:00;8.00;;;4.80;;
53411;SDS011;39307;52.870;13.660;2023-07-02T04:46:26;9.82;;;4.63;;
53411;SDS011;39307;52.870;13.660;2023-07-02T04:48:57;7.47;;;4.60;;
53411;SDS011;39307;52.870;13.660;2023-07-02T04:51:24;8.30;;;4.85;;
53411;SDS011;39307;52.870;13.660;2023-07-02T04:53:50;7.28;;;4.53;;
53411;SDS011;39307;52.870;13.660;2023-07-02T04:56:16;8.73;;;4.88;;
53411;SDS011;39307;52.870;13.660;2023-07-02T04:58:42;8.48;;;4.43;;
53411;SDS011;39307;52.870;13.660;2023-07-02T05:01:08;8.60;;;4.45;;
53411;SDS011;39307;52.870;13.660;2023-07-02T05:03:36;7.07;;;4.20;;
53411;SDS011;39307;52.870;13.660;2023-07-02T05:06:03;7.40;;;4.30;;
53411;SDS011;39307;52.870;13.660;2023-07-02T05:08:30;10.23;;;4.60;;
53411;SDS011;39307;52.870;13.660;2023-07-02T05:10:56;9.88;;;4.65;;
53411;SDS011;39307;52.870;13.660;2023-07-02T05:13:22;9.82;;;4.70;;
53411;SDS011;39307;52.870;13.660;2023-07-02T05:15:48;6.65;;;3.95;;
53411;SDS011;39307;52.870;13.660;2023-07-02T05:18:14;7.68;;;4.47;;
53411;SDS011;39307;52.870;13.660;2023-07-02T05:20:40;7.35;;;4.38;;
53411;SDS011;39307;52.870;13.660;2023-07-02T05:23:07;9.13;;;3.70;;
53411;SDS011;39307;52.870;13.660;2023-07-02T05:25:33;11.13;;;4.28;;
53411;SDS011;39307;52.870;13.660;2023-07-02T05:27:59;9.60;;;4.27;;
53411;SDS011;39307;52.870;13.660;2023-07-02T05:30:25;7.47;;;3.83;;
53411;SDS011;39307;52.870;13.660;2023-07-02T05:32:51;8.33;;;3.70;;
53411;SDS011;39307;52.870;13.660;2023-07-02T05:35:17;6.60;;;3.93;;
53411;SDS011;39307;52.870;13.660;2023-07-02T05:37:44;8.33;;;3.77;;
53411;SDS011;39307;52.870;13.660;2023-07-02T05:40:10;7.05;;;3.95;;
53411;SDS011;39307;52.870;13.660;2023-07-02T05:42:36;8.82;;;3.92;;
53411;SDS011;39307;52.870;13.660;2023-07-02T05:45:02;9.35;;;4.18;;
53411;SDS011;39307;52.870;13.660;2023-07-02T05:47:29;8.15;;;3.60;;
53411;SDS011;39307;52.870;13.660;2023-07-02T05:49:55;8.98;;;4.00;;
53411;SDS011;39307;52.870;13.660;2023-07-02T05:52:21;9.25;;;3.95;;
53411;SDS011;39307;52.870;13.660;2023-07-02T05:54:47;7.32;;;4.05;;
53411;SDS011;39307;52.870;13.660;2023-07-02T05:57:13;8.30;;;3.88;;
53411;SDS011;39307;52.870;13.660;2023-07-02T05:59:40;7.25;;;3.70;;
53411;SDS011;39307;52.870;13.660;2023-07-02T06:02:06;9.13;;;4.13;;
53411;SDS011;39307;52.870;13.660;2023-07-02T06:04:32;7.97;;;3.45;;
53411;SDS011;39307;52.870;13.660;2023-07-02T06:06:58;6.00;;;3.40;;
53411;SDS011;39307;52.870;13.660;2023-07-02T06:09:25;8.00;;;3.70;;
53411;SDS011;39307;52.870;13.660;2023-07-02T06:11:51;9.77;;;3.50;;
53411;SDS011;39307;52.870;13.660;2023-07-02T06:14:17;6.03;;;3.22;;
53411;SDS011;39307;52.870;13.660;2023-07-02T06:16:43;6.43;;;3.22;;
53411;SDS011;39307;52.870;13.660;2023-07-02T06:19:10;7.82;;;3.47;;
53411;SDS011;39307;52.870;13.660;2023-07-02T06:21:36;9.38;;;3.45;;
53411;SDS011;39307;52.870;13.660;2023-07-02T06:24:02;9.95;;;3.45;;
53411;SDS011;39307;52.870;13.660;2023-07-02T06:26:29;5.90;;;3.30;;
53411;SDS011;39307;52.870;13.660;2023-07-02T06:28:55;7.60;;;3.30;;
53411;SDS011;39307;52.870;13.660;2023-07-02T06:31:23;9.02;;;3.38;;
53411;SDS011;39307;52.870;13.660;2023-07-02T06:33:59;7.57;;;3.35;;
53411;SDS011;39307;52.870;13.660;2023-07-02T06:36:26;9.38;;;3.53;;
53411;SDS011;39307;52.870;13.660;2023-07-02T06:38:52;9.10;;;3.13;;
53411;SDS011;39307;52.870;13.660;2023-07-02T06:41:18;6.30;;;3.35;;
53411;SDS011;39307;52.870;13.660;2023-07-02T06:43:44;9.45;;;3.22;;
53411;SDS011;39307;52.870;13.660;2023-07-02T06:46:11;6.43;;;3.08;;
53411;SDS011;39307;52.870;13.660;2023-07-02T06:48:37;9.32;;;3.40;;
53411;SDS011;39307;52.870;13.660;2023-07-02T06:51:03;7.38;;;3.10;;
53411;SDS011;39307;52.870;13.660;2023-07-02T06:53:30;7.43;;;3.35;;
53411;SDS011;39307;52.870;13.660;2023-07-02T06:55:58;6.45;;;3.15;;
53411;SDS011;39307;52.870;13.660;2023-07-02T06:58:30;8.75;;;3.13;;
53411;SDS011;39307;52.870;13.660;2023-07-02T07:01:00;8.07;;;3.30;;
53411;SDS011;39307;52.870;13.660;2023-07-02T07:03:32;6.82;;;3.20;;
53411;SDS011;39307;52.870;13.660;2023-07-02T07:06:06;7.05;;;3.22;;
53411;SDS011;39307;52.870;13.660;2023-07-02T07:08:32;10.33;;;3.50;;
53411;SDS011;39307;52.870;13.660;2023-07-02T07:10:58;6.03;;;3.00;;
53411;SDS011;39307;52.870;13.660;2023-07-02T07:13:24;7.57;;;3.10;;
53411;SDS011;39307;52.870;13.660;2023-07-02T07:15:50;6.97;;;3.00;;
53411;SDS011;39307;52.870;13.660;2023-07-02T07:18:15;9.52;;;3.50;;
53411;SDS011;39307;52.870;13.660;2023-07-02T07:20:42;10.45;;;3.40;;
53411;SDS011;39307;52.870;13.660;2023-07-02T07:23:08;8.20;;;2.97;;
53411;SDS011;39307;52.870;13.660;2023-07-02T07:25:34;7.55;;;3.25;;
53411;SDS011;39307;52.870;13.660;2023-07-02T07:28:00;7.00;;;2.97;;
53411;SDS011;39307;52.870;13.660;2023-07-02T07:30:26;7.13;;;2.93;;
53411;SDS011;39307;52.870;13.660;2023-07-02T07:32:53;7.70;;;2.88;;
53411;SDS011;39307;52.870;13.660;2023-07-02T07:35:20;11.98;;;3.05;;
53411;SDS011;39307;52.870;13.660;2023-07-02T07:37:47;8.27;;;2.90;;
53411;SDS011;39307;52.870;13.660;2023-07-02T07:40:17;6.53;;;2.70;;
53411;SDS011;39307;52.870;13.660;2023-07-02T07:42:45;8.43;;;2.95;;
53411;SDS011;39307;52.870;13.660;2023-07-02T07:45:11;8.77;;;2.72;;
53411;SDS011;39307;52.870;13.660;2023-07-02T07:47:38;6.50;;;2.70;;
53411;SDS011;39307;52.870;13.660;2023-07-02T07:50:05;7.17;;;2.70;;
53411;SDS011;39307;52.870;13.660;2023-07-02T07:52:32;7.65;;;2.92;;
53411;SDS011;39307;52.870;13.660;2023-07-02T07:54:58;6.75;;;2.78;;
53411;SDS011;39307;52.870;13.660;2023-07-02T07:57:24;7.50;;;2.88;;
53411;SDS011;39307;52.870;13.660;2023-07-02T07:59:50;5.85;;;2.80;;
53411;SDS011;39307;52.870;13.660;2023-07-02T08:02:16;6.40;;;2.83;;
53411;SDS011;39307;52.870;13.660;2023-07-02T08:04:43;6.93;;;2.63;;
53411;SDS011;39307;52.870;13.660;2023-07-02T08:07:09;6.82;;;2.70;;
53411;SDS011;39307;52.870;13.660;2023-07-02T08:09:35;8.60;;;3.23;;
53411;SDS011;39307;52.870;13.660;2023-07-02T08:12:01;7.10;;;3.20;;
53411;SDS011;39307;52.870;13.660;2023-07-02T08:14:27;7.93;;;3.20;;
53411;SDS011;39307;52.870;13.660;2023-07-02T08:16:53;8.57;;;3.22;;
53411;SDS011;39307;52.870;13.660;2023-07-02T08:19:20;7.82;;;3.72;;
53411;SDS011;39307;52.870;13.660;2023-07-02T08:21:46;11.00;;;4.13;;
53411;SDS011;39307;52.870;13.660;2023-07-02T08:24:12;12.88;;;4.00;;
53411;SDS011;39307;52.870;13.660;2023-07-02T08:26:38;9.70;;;4.28;;
53411;SDS011;39307;52.870;13.660;2023-07-02T08:29:04;10.45;;;4.60;;
53411;SDS011;39307;52.870;13.660;2023-07-02T08:31:30;11.03;;;4.90;;
53411;SDS011;39307;52.870;13.660;2023-07-02T08:33:58;11.50;;;4.88;;
53411;SDS011;39307;52.870;13.660;2023-07-02T08:36:23;12.40;;;4.38;;
53411;SDS011;39307;52.870;13.660;2023-07-02T08:38:49;12.82;;;4.50;;
53411;SDS011;39307;52.870;13.660;2023-07-02T08:41:16;10.70;;;4.30;;
53411;SDS011;39307;52.870;13.660;2023-07-02T08:43:42;10.25;;;4.60;;
53411;SDS011;39307;52.870;13.660;2023-07-02T08:46:09;10.77;;;4.55;;
53411;SDS011;39307;52.870;13.660;2023-07-02T08:48:36;11.00;;;4.80;;
53411;SDS011;39307;52.870;13.660;2023-07-02T08:51:02;9.70;;;4.57;;
53411;SDS011;39307;52.870;13.660;2023-07-02T08:53:29;12.10;;;4.80;;
53411;SDS011;39307;52.870;13.660;2023-07-02T08:55:55;12.57;;;5.38;;
53411;SDS011;39307;52.870;13.660;2023-07-02T08:58:22;11.75;;;5.13;;
53411;SDS011;39307;52.870;13.660;2023-07-02T09:01:06;11.73;;;4.90;;
53411;SDS011;39307;52.870;13.660;2023-07-02T09:03:37;10.00;;;4.45;;
53411;SDS011;39307;52.870;13.660;2023-07-02T09:06:04;10.20;;;4.95;;
53411;SDS011;39307;52.870;13.660;2023-07-02T09:08:32;9.67;;;4.70;;
53411;SDS011;39307;52.870;13.660;2023-07-02T09:11:15;12.73;;;4.90;;
53411;SDS011;39307;52.870;13.660;2023-07-02T09:13:42;11.55;;;4.97;;
53411;SDS011;39307;52.870;13.660;2023-07-02T09:16:22;11.57;;;4.97;;
53411;SDS011;39307;52.870;13.660;2023-07-02T09:18:59;9.48;;;4.47;;
53411;SDS011;39307;52.870;13.660;2023-07-02T09:21:42;10.95;;;4.95;;
53411;SDS011;39307;52.870;13.660;2023-07-02T09:24:19;11.35;;;5.00;;
53411;SDS011;39307;52.870;13.660;2023-07-02T09:26:50;14.55;;;5.63;;
53411;SDS011;39307;52.870;13.660;2023-07-02T09:29:21;11.65;;;5.55;;
53411;SDS011;39307;52.870;13.660;2023-07-02T09:31:49;12.73;;;5.18;;
53411;SDS011;39307;52.870;13.660;2023-07-02T09:34:16;11.85;;;5.32;;
53411;SDS011;39307;52.870;13.660;2023-07-02T09:36:42;12.95;;;5.45;;
53411;SDS011;39307;52.870;13.660;2023-07-02T09:39:13;14.68;;;5.65;;
53411;SDS011;39307;52.870;13.660;2023-07-02T09:41:45;10.88;;;5.22;;
53411;SDS011;39307;52.870;13.660;2023-07-02T09:44:15;11.75;;;5.47;;
53411;SDS011;39307;52.870;13.660;2023-07-02T09:46:44;12.87;;;5.77;;
53411;SDS011;39307;52.870;13.660;2023-07-02T09:49:21;11.02;;;4.97;;
53411;SDS011;39307;52.870;13.660;2023-07-02T09:51:48;12.13;;;5.15;;
53411;SDS011;39307;52.870;13.660;2023-07-02T09:54:14;14.55;;;5.55;;
53411;SDS011;39307;52.870;13.660;2023-07-02T09:56:41;13.95;;;5.25;;
53411;SDS011;39307;52.870;13.660;2023-07-02T09:59:11;12.45;;;5.18;;
53411;SDS011;39307;52.870;13.660;2023-07-02T10:01:37;11.23;;;5.30;;
53411;SDS011;39307;52.870;13.660;2023-07-02T10:04:17;12.13;;;5.47;;
53411;SDS011;39307;52.870;13.660;2023-07-02T10:06:48;12.30;;;5.13;;
53411;SDS011;39307;52.870;13.660;2023-07-02T10:09:20;13.23;;;5.27;;
53411;SDS011;39307;52.870;13.660;2023-07-02T10:11:59;11.53;;;5.10;;
53411;SDS011;39307;52.870;13.660;2023-07-02T10:14:26;11.95;;;4.85;;
53411;SDS011;39307;52.870;13.660;2023-07-02T10:16:53;12.83;;;5.07;;
53411;SDS011;39307;52.870;13.660;2023-07-02T10:19:20;12.02;;;5.10;;
53411;SDS011;39307;52.870;13.660;2023-07-02T10:21:48;14.70;;;5.32;;
53411;SDS011;39307;52.870;13.660;2023-07-02T10:24:27;11.68;;;4.93;;
53411;SDS011;39307;52.870;13.660;2023-07-02T10:26:57;11.90;;;5.43;;
53411;SDS011;39307;52.870;13.660;2023-07-02T10:29:25;10.02;;;5.00;;
53411;SDS011;39307;52.870;13.660;2023-07-02T10:31:55;12.35;;;5.07;;
53411;SDS011;39307;52.870;13.660;2023-07-02T10:34:32;12.57;;;5.03;;
53411;SDS011;39307;52.870;13.660;2023-07-02T10:37:02;12.40;;;5.45;;
53411;SDS011;39307;52.870;13.660;2023-07-02T10:39:29;14.77;;;5.57;;
53411;SDS011;39307;52.870;13.660;2023-07-02T10:42:08;10.20;;;4.82;;
53411;SDS011;39307;52.870;13.660;2023-07-02T10:44:56;10.82;;;5.03;;
53411;SDS011;39307;52.870;13.660;2023-07-02T10:47:22;11.27;;;5.47;;
53411;SDS011;39307;52.870;13.660;2023-07-02T10:49:48;13.13;;;5.63;;
53411;SDS011;39307;52.870;13.660;2023-07-02T10:52:15;12.73;;;5.00;;
53411;SDS011;39307;52.870;13.660;2023-07-02T10:54:47;11.52;;;5.35;;
53411;SDS011;39307;52.870;13.660;2023-07-02T10:57:15;14.35;;;5.63;;
53411;SDS011;39307;52.870;13.660;2023-07-02T10:59:43;13.07;;;5.35;;
53411;SDS011;39307;52.870;13.660;2023-07-02T11:02:10;11.88;;;5.30;;
53411;SDS011;39307;52.870;13.660;2023-07-02T11:04:36;11.50;;;5.45;;
53411;SDS011;39307;52.870;13.660;2023-07-02T11:07:03;14.32;;;5.68;;
53411;SDS011;39307;52.870;13.660;2023-07-02T11:09:30;13.63;;;6.40;;
53411;SDS011;39307;52.870;13.660;2023-07-02T11:11:59;14.97;;;5.90;;
53411;SDS011;39307;52.870;13.660;2023-07-02T11:14:36;15.88;;;5.72;;
53411;SDS011;39307;52.870;13.660;2023-07-02T11:17:03;12.07;;;5.72;;
53411;SDS011;39307;52.870;13.660;2023-07-02T11:19:30;12.43;;;5.20;;
53411;SDS011;39307;52.870;13.660;2023-07-02T11:21:57;14.55;;;5.93;;
53411;SDS011;39307;52.870;13.660;2023-07-02T11:26:54;15.40;;;8.88;;
53411;SDS011;39307;52.870;13.660;2023-07-02T11:29:21;13.57;;;6.57;;
53411;SDS011;39307;52.870;13.660;2023-07-02T11:31:47;11.07;;;5.50;;
53411;SDS011;39307;52.870;13.660;2023-07-02T11:34:21;10.95;;;5.53;;
53411;SDS011;39307;52.870;13.660;2023-07-02T11:36:48;12.63;;;6.30;;
53411;SDS011;39307;52.870;13.660;2023-07-02T11:39:14;12.30;;;5.85;;
53411;SDS011;39307;52.870;13.660;2023-07-02T11:41:41;13.05;;;6.28;;
53411;SDS011;39307;52.870;13.660;2023-07-02T11:44:08;16.15;;;6.30;;
53411;SDS011;39307;52.870;13.660;2023-07-02T11:46:35;11.50;;;6.18;;
53411;SDS011;39307;52.870;13.660;2023-07-02T11:49:02;13.88;;;6.22;;
53411;SDS011;39307;52.870;13.660;2023-07-02T11:51:30;15.00;;;6.13;;
53411;SDS011;39307;52.870;13.660;2023-07-02T11:53:57;11.02;;;5.45;;
53411;SDS011;39307;52.870;13.660;2023-07-02T11:56:23;13.17;;;5.77;;
53411;SDS011;39307;52.870;13.660;2023-07-02T11:58:49;14.30;;;5.90;;
53411;SDS011;39307;52.870;13.660;2023-07-02T12:01:16;12.98;;;5.82;;
53411;SDS011;39307;52.870;13.660;2023-07-02T12:03:43;17.23;;;5.97;;
53411;SDS011;39307;52.870;13.660;2023-07-02T12:06:09;12.82;;;5.80;;
53411;SDS011;39307;52.870;13.660;2023-07-02T12:08:36;14.40;;;6.10;;
53411;SDS011;39307;52.870;13.660;2023-07-02T12:11:02;12.30;;;6.10;;
53411;SDS011;39307;52.870;13.660;2023-07-02T12:13:28;12.88;;;5.75;;
53411;SDS011;39307;52.870;13.660;2023-07-02T12:15:55;12.25;;;6.13;;
53411;SDS011;39307;52.870;13.660;2023-07-02T12:18:21;15.97;;;6.33;;
53411;SDS011;39307;52.870;13.660;2023-07-02T12:20:47;12.93;;;5.80;;
53411;SDS011;39307;52.870;13.660;2023-07-02T12:23:13;14.23;;;6.00;;
53411;SDS011;39307;52.870;13.660;2023-07-02T12:25:39;12.60;;;6.15;;
53411;SDS011;39307;52.870;13.660;2023-07-02T12:28:05;14.77;;;6.65;;
53411;SDS011;39307;52.870;13.660;2023-07-02T12:30:32;13.15;;;6.63;;
53411;SDS011;39307;52.870;13.660;2023-07-02T12:32:59;12.68;;;6.10;;
53411;SDS011;39307;52.870;13.660;2023-07-02T12:35:27;15.60;;;6.55;;
53411;SDS011;39307;52.870;13.660;2023-07-02T12:37:54;17.40;;;6.47;;
53411;SDS011;39307;52.870;13.660;2023-07-02T12:40:21;15.23;;;6.93;;
53411;SDS011;39307;52.870;13.660;2023-07-02T12:42:47;13.10;;;6.13;;
53411;SDS011;39307;52.870;13.660;2023-07-02T12:45:14;12.18;;;6.07;;
53411;SDS011;39307;52.870;13.660;2023-07-02T12:47:41;13.80;;;6.80;;
53411;SDS011;39307;52.870;13.660;2023-07-02T12:50:08;19.00;;;6.55;;
53411;SDS011;39307;52.870;13.660;2023-07-02T12:52:35;16.13;;;6.78;;
53411;SDS011;39307;52.870;13.660;2023-07-02T12:55:01;13.47;;;6.60;;
53411;SDS011;39307;52.870;13.660;2023-07-02T12:57:28;15.13;;;6.50;;
53411;SDS011;39307;52.870;13.660;2023-07-02T12:59:56;12.85;;;6.03;;
53411;SDS011;39307;52.870;13.660;2023-07-02T13:02:22;14.68;;;6.53;;
53411;SDS011;39307;52.870;13.660;2023-07-02T13:04:49;13.95;;;6.68;;
53411;SDS011;39307;52.870;13.660;2023-07-02T13:07:16;12.30;;;6.15;;
53411;SDS011;39307;52.870;13.660;2023-07-02T13:09:43;13.20;;;6.18;;
53411;SDS011;39307;52.870;13.660;2023-07-02T13:12:10;13.57;;;6.45;;
53411;SDS011;39307;52.870;13.660;2023-07-02T13:14:36;13.05;;;6.10;;
53411;SDS011;39307;52.870;13.660;2023-07-02T13:17:02;15.50;;;6.15;;
53411;SDS011;39307;52.870;13.660;2023-07-02T13:19:29;12.05;;;6.20;;
53411;SDS011;39307;52.870;13.660;2023-07-02T13:21:55;12.63;;;6.00;;
53411;SDS011;39307;52.870;13.660;2023-07-02T13:24:21;11.85;;;6.00;;
53411;SDS011;39307;52.870;13.660;2023-07-02T13:26:48;13.65;;;6.13;;
53411;SDS011;39307;52.870;13.660;2023-07-02T13:29:14;14.98;;;6.60;;
53411;SDS011;39307;52.870;13.660;2023-07-02T13:31:40;13.20;;;6.05;;
53411;SDS011;39307;52.870;13.660;2023-07-02T13:34:06;12.20;;;6.07;;
53411;SDS011;39307;52.870;13.660;2023-07-02T13:36:32;13.25;;;6.18;;
53411;SDS011;39307;52.870;13.660;2023-07-02T13:38:59;11.40;;;6.20;;
53411;SDS011;39307;52.870;13.660;2023-07-02T13:41:25;12.40;;;6.03;;
53411;SDS011;39307;52.870;13.660;2023-07-02T13:43:51;13.35;;;5.80;;
53411;SDS011;39307;52.870;13.660;2023-07-02T13:46:17;11.90;;;6.43;;
53411;SDS011;39307;52.870;13.660;2023-07-02T13:48:44;13.27;;;6.23;;
53411;SDS011;39307;52.870;13.660;2023-07-02T13:51:10;14.18;;;6.38;;
53411;SDS011;39307;52.870;13.660;2023-07-02T13:53:36;12.30;;;6.00;;
53411;SDS011;39307;52.870;13.660;2023-07-02T13:56:02;12.18;;;5.47;;
53411;SDS011;39307;52.870;13.660;2023-07-02T14:01:34;11.93;;;5.70;;
53411;SDS011;39307;52.870;13.660;2023-07-02T14:04:00;12.07;;;5.72;;
53411;SDS011;39307;52.870;13.660;2023-07-02T14:06:27;10.32;;;5.30;;
53411;SDS011;39307;52.870;13.660;2023-07-02T14:08:53;12.75;;;5.78;;
53411;SDS011;39307;52.870;13.660;2023-07-02T14:11:20;11.25;;;5.60;;
53411;SDS011;39307;52.870;13.660;2023-07-02T14:13:47;13.07;;;5.88;;
53411;SDS011;39307;52.870;13.660;2023-07-02T14:16:13;15.07;;;5.82;;
53411;SDS011;39307;52.870;13.660;2023-07-02T14:18:40;12.38;;;5.68;;
53411;SDS011;39307;52.870;13.660;2023-07-02T14:21:06;13.20;;;5.53;;
53411;SDS011;39307;52.870;13.660;2023-07-02T14:23:33;11.32;;;5.53;;
53411;SDS011;39307;52.870;13.660;2023-07-02T14:25:59;13.93;;;5.93;;
53411;SDS011;39307;52.870;13.660;2023-07-02T14:28:25;10.50;;;5.50;;
53411;SDS011;39307;52.870;13.660;2023-07-02T14:31:05;11.30;;;5.70;;
53411;SDS011;39307;52.870;13.660;2023-07-02T14:33:33;13.93;;;6.15;;